createdAt,value
2022-09-15T00:00:22.562Z,15.11
2022-09-15T00:03:26.660Z,15.09
2022-09-15T00:06:31.034Z,15.02
2022-09-15T00:09:35.760Z,15.01
2022-09-15T00:12:39.720Z,14.94
2022-09-15T00:15:43.536Z,14.92
2022-09-15T00:18:48.291Z,14.93
2022-09-15T00:21:52.570Z,14.91
2022-09-15T00:24:56.808Z,14.86
2022-09-15T00:28:00.589Z,14.84
2022-09-15T00:31:07.516Z,14.80
2022-09-15T00:34:13.432Z,14.77
2022-09-15T00:37:18.135Z,14.75
2022-09-15T00:40:22.342Z,14.75
2022-09-15T00:43:50.510Z,14.79
2022-09-15T00:47:15.640Z,14.76
2022-09-15T00:50:21.906Z,14.70
2022-09-15T00:53:27.189Z,14.67
2022-09-15T00:56:33.756Z,14.70
2022-09-15T00:59:41.384Z,14.69
2022-09-15T01:02:47.285Z,14.71
2022-09-15T01:05:57.826Z,14.70
2022-09-15T01:09:16.568Z,14.71
2022-09-15T01:12:21.865Z,14.68
2022-09-15T01:15:32.322Z,14.68
2022-09-15T01:19:10.341Z,14.69
2022-09-15T01:22:36.187Z,14.66
2022-09-15T01:25:43.584Z,14.65
2022-09-15T01:29:25.243Z,14.65
2022-09-15T01:33:05.366Z,14.63
2022-09-15T01:36:24.586Z,14.56
2022-09-15T01:39:35.090Z,14.50
2022-09-15T01:42:40.551Z,14.51
2022-09-15T01:45:47.426Z,14.50
2022-09-15T01:48:55.022Z,14.53
2022-09-15T01:51:59.497Z,14.51
2022-09-15T01:55:14.012Z,14.54
2022-09-15T01:58:17.822Z,14.56
2022-09-15T02:01:29.752Z,14.58
2022-09-15T02:04:51.162Z,14.58
2022-09-15T02:08:09.815Z,14.57
2022-09-15T02:11:25.824Z,14.52
2022-09-15T02:14:52.700Z,14.50
2022-09-15T02:17:59.144Z,14.45
2022-09-15T02:21:15.067Z,14.45
2022-09-15T02:24:25.157Z,14.41
2022-09-15T02:27:32.777Z,14.38
2022-09-15T02:30:41.196Z,14.40
2022-09-15T02:33:51.196Z,14.49
2022-09-15T02:36:55.261Z,14.50
2022-09-15T02:40:00.224Z,14.54
2022-09-15T02:43:05.462Z,14.58
2022-09-15T02:46:09.607Z,14.62
2022-09-15T02:49:14.150Z,14.62
2022-09-15T02:52:18.307Z,14.61
2022-09-15T02:55:23.650Z,14.58
2022-09-15T02:58:27.781Z,14.55
2022-09-15T03:01:34.671Z,14.52
2022-09-15T03:04:38.900Z,14.49
2022-09-15T03:07:43.581Z,14.48
2022-09-15T03:10:47.896Z,14.50
2022-09-15T03:14:00.704Z,14.46
2022-09-15T03:17:04.854Z,14.43
2022-09-15T03:20:11.359Z,14.39
2022-09-15T03:23:15.128Z,14.41
2022-09-15T03:26:18.989Z,14.46
2022-09-15T03:29:23.244Z,14.43
2022-09-15T03:32:27.563Z,14.36
2022-09-15T03:35:31.480Z,14.32
2022-09-15T03:38:35.450Z,14.32
2022-09-15T03:41:39.427Z,14.34
2022-09-15T03:44:43.785Z,14.35
2022-09-15T03:47:47.857Z,14.41
2022-09-15T03:50:52.095Z,14.45
2022-09-15T03:53:56.471Z,14.50
2022-09-15T03:57:00.697Z,14.52
2022-09-15T04:00:07.906Z,14.53
2022-09-15T04:03:13.281Z,14.55
2022-09-15T04:06:18.298Z,14.57
2022-09-15T04:09:22.440Z,14.58
2022-09-15T04:12:26.289Z,14.51
2022-09-15T04:15:30.391Z,14.52
2022-09-15T04:18:34.901Z,14.56
2022-09-15T04:21:38.909Z,14.38
2022-09-15T04:24:42.881Z,14.32
2022-09-15T04:27:47.219Z,14.29
2022-09-15T04:30:52.075Z,14.26
2022-09-15T04:33:56.627Z,14.20
2022-09-15T04:37:00.851Z,14.12
2022-09-15T04:40:05.337Z,14.09
2022-09-15T04:43:09.542Z,14.06
2022-09-15T04:46:15.080Z,14.04
2022-09-15T04:49:19.468Z,14.00
2022-09-15T04:52:23.510Z,13.99
2022-09-15T04:55:27.413Z,14.00
2022-09-15T04:58:34.903Z,14.01
2022-09-15T05:01:39.655Z,13.99
2022-09-15T05:04:44.126Z,14.00
2022-09-15T05:07:48.313Z,13.97
2022-09-15T05:10:53.305Z,14.02
2022-09-15T05:13:57.176Z,14.04
2022-09-15T05:17:01.150Z,14.05
2022-09-15T05:20:05.522Z,14.11
2022-09-15T05:23:10.569Z,14.18
2022-09-15T05:26:17.791Z,14.25
2022-09-15T05:29:22.075Z,14.33
2022-09-15T05:32:26.437Z,14.43
2022-09-15T05:35:30.093Z,14.55
2022-09-15T05:38:34.005Z,14.60
2022-09-15T05:41:38.122Z,14.66
2022-09-15T05:44:41.951Z,14.68
2022-09-15T05:47:46.292Z,14.68
2022-09-15T05:50:52.702Z,14.66
2022-09-15T05:53:56.830Z,14.72
2022-09-15T05:57:01.187Z,14.79
2022-09-15T06:00:05.613Z,14.86
2022-09-15T06:03:14.973Z,14.90
2022-09-15T06:06:19.945Z,14.96
2022-09-15T06:09:23.859Z,15.01
2022-09-15T06:12:27.619Z,14.95
2022-09-15T06:15:32.429Z,14.81
2022-09-15T06:18:38.153Z,14.94
2022-09-15T06:21:42.219Z,15.09
2022-09-15T06:24:46.268Z,15.16
2022-09-15T06:27:50.644Z,15.16
2022-09-15T06:30:54.661Z,15.18
2022-09-15T06:34:00.581Z,15.25
2022-09-15T06:37:04.761Z,15.29
2022-09-15T06:40:09.370Z,15.32
2022-09-15T06:43:13.738Z,15.26
2022-09-15T06:46:21.387Z,15.22
2022-09-15T06:49:26.052Z,15.26
2022-09-15T06:52:30.030Z,15.26
2022-09-15T06:55:34.171Z,15.18
2022-09-15T06:58:40.105Z,15.27
2022-09-15T07:01:44.188Z,15.30
2022-09-15T07:04:48.348Z,15.30
2022-09-15T07:07:53.053Z,15.35
2022-09-15T07:10:57.529Z,15.43
2022-09-15T07:14:01.799Z,15.50
2022-09-15T07:17:05.928Z,15.60
2022-09-15T07:20:10.265Z,15.69
2022-09-15T07:23:15.224Z,15.72
2022-09-15T07:26:22.043Z,15.72
2022-09-15T07:29:26.225Z,15.64
2022-09-15T07:32:30.294Z,15.64
2022-09-15T07:35:34.462Z,15.73
2022-09-15T07:38:41.511Z,15.80
2022-09-15T07:41:45.186Z,15.73
2022-09-15T07:44:49.060Z,15.68
2022-09-15T07:47:52.874Z,15.71
2022-09-15T07:50:57.141Z,15.77
2022-09-15T07:54:01.611Z,15.84
2022-09-15T07:57:06.433Z,15.99
2022-09-15T08:00:11.196Z,16.00
2022-09-15T08:03:15.969Z,16.02
2022-09-15T08:06:25.335Z,16.09
2022-09-15T08:09:29.718Z,16.24
2022-09-15T08:12:33.828Z,16.33
2022-09-15T08:15:38.176Z,16.34
2022-09-15T08:18:43.113Z,16.40
2022-09-15T08:21:47.319Z,16.46
2022-09-15T08:24:51.292Z,16.59
2022-09-15T08:27:56.321Z,16.57
2022-09-15T08:31:05.967Z,16.58
2022-09-15T08:34:12.127Z,16.61
2022-09-15T08:37:16.972Z,16.69
2022-09-15T08:40:29.883Z,16.81
2022-09-15T08:44:16.127Z,16.82
2022-09-15T08:47:31.800Z,16.82
2022-09-15T08:50:43.296Z,16.88
2022-09-15T08:53:59.692Z,16.89
2022-09-15T08:57:05.640Z,16.92
2022-09-15T09:00:17.092Z,17.01
2022-09-15T09:03:39.548Z,17.03
2022-09-15T09:07:03.839Z,17.13
2022-09-15T09:10:29.414Z,17.24
2022-09-15T09:13:36.515Z,17.23
2022-09-15T09:16:43.245Z,17.32
2022-09-15T09:19:50.117Z,17.25
2022-09-15T09:22:54.748Z,17.46
2022-09-15T09:26:01.890Z,17.52
2022-09-15T09:29:18.315Z,17.44
2022-09-15T09:32:26.210Z,17.33
2022-09-15T09:35:53.267Z,17.29
2022-09-15T09:38:58.531Z,17.32
2022-09-15T09:42:03.334Z,17.46
2022-09-15T09:45:11.509Z,17.51
2022-09-15T09:48:21.300Z,17.76
2022-09-15T09:51:34.350Z,17.84
2022-09-15T09:54:38.723Z,17.92
2022-09-15T09:57:42.964Z,18.14
2022-09-15T10:00:47.843Z,18.25
2022-09-15T10:04:12.502Z,18.35
2022-09-15T10:07:21.057Z,18.40
2022-09-15T10:10:32.174Z,18.44
2022-09-15T10:13:49.336Z,18.48
2022-09-15T10:17:06.412Z,18.38
2022-09-15T10:20:25.649Z,18.42
2022-09-15T10:23:31.459Z,18.43
2022-09-15T10:26:35.689Z,18.27
2022-09-15T10:29:39.829Z,18.38
2022-09-15T10:32:44.123Z,18.53
2022-09-15T10:35:48.247Z,18.78
2022-09-15T10:39:01.843Z,18.71
2022-09-15T10:42:16.696Z,18.43
2022-09-15T10:45:40.372Z,18.21
2022-09-15T10:49:12.285Z,18.05
2022-09-15T10:52:34.495Z,17.84
2022-09-15T10:55:52.765Z,17.75
2022-09-15T10:59:09.464Z,17.76
2022-09-15T11:02:14.562Z,17.75
2022-09-15T11:05:26.808Z,17.72
2022-09-15T11:08:40.685Z,17.76
2022-09-15T11:12:09.046Z,17.61
2022-09-15T11:15:35.482Z,17.42
2022-09-15T11:19:06.607Z,17.21
2022-09-15T11:22:20.333Z,17.11
2022-09-15T11:25:26.083Z,17.10
2022-09-15T11:28:43.894Z,17.08
2022-09-15T11:31:52.230Z,16.97
2022-09-15T11:35:26.381Z,16.90
2022-09-15T11:38:43.082Z,16.90
2022-09-15T11:41:56.402Z,16.89
2022-09-15T11:45:02.217Z,16.94
2022-09-15T11:48:16.180Z,16.99
2022-09-15T11:51:22.187Z,17.14
2022-09-15T11:54:34.769Z,17.34
2022-09-15T11:57:45.780Z,17.44
2022-09-15T12:00:59.314Z,17.55
2022-09-15T12:04:10.438Z,17.64
2022-09-15T12:07:18.813Z,17.75
2022-09-15T12:10:31.236Z,17.85
2022-09-15T12:13:37.061Z,17.82
2022-09-15T12:16:41.363Z,17.90
2022-09-15T12:19:55.853Z,17.81
2022-09-15T12:23:32.864Z,17.83
2022-09-15T12:26:38.009Z,17.86
2022-09-15T12:29:50.950Z,17.93
2022-09-15T12:32:56.435Z,18.03
2022-09-15T12:36:39.086Z,18.11
2022-09-15T12:39:45.204Z,18.24
2022-09-15T12:42:49.142Z,18.30
2022-09-15T12:46:00.092Z,18.15
2022-09-15T12:49:04.228Z,18.12
2022-09-15T12:52:09.913Z,18.22
2022-09-15T12:55:27.279Z,18.36
2022-09-15T12:58:40.501Z,18.32
2022-09-15T13:01:44.572Z,18.21
2022-09-15T13:04:53.778Z,18.26
2022-09-15T13:07:58.803Z,18.20
2022-09-15T13:11:12.537Z,18.24
2022-09-15T13:14:34.259Z,18.20
2022-09-15T13:17:42.833Z,18.18
2022-09-15T13:21:00.038Z,18.11
2022-09-15T13:24:08.495Z,17.97
2022-09-15T13:27:16.193Z,17.84
2022-09-15T13:30:51.845Z,17.75
2022-09-15T13:38:15.211Z,17.67
2022-09-15T13:42:09.362Z,17.51
2022-09-15T13:45:50.577Z,17.51
2022-09-15T13:49:19.629Z,17.43
2022-09-15T13:53:02.860Z,17.55
2022-09-15T13:56:10.379Z,17.56
2022-09-15T13:59:25.318Z,17.56
2022-09-15T14:02:30.036Z,17.54
2022-09-15T14:05:35.779Z,17.51
2022-09-15T14:08:42.093Z,17.50
2022-09-15T14:11:53.017Z,17.55
2022-09-15T14:14:59.172Z,17.70
2022-09-15T14:18:03.532Z,17.78
2022-09-15T14:21:17.354Z,17.87
2022-09-15T14:24:21.977Z,17.98
2022-09-15T14:27:29.372Z,18.03
2022-09-15T14:30:33.585Z,18.09
2022-09-15T14:33:40.556Z,18.12
2022-09-15T14:36:45.856Z,18.02
2022-09-15T14:39:56.344Z,18.03
2022-09-15T14:43:00.668Z,17.99
2022-09-15T14:46:18.464Z,18.00
2022-09-15T14:49:23.114Z,17.96
2022-09-15T14:52:33.440Z,17.96
2022-09-15T14:56:05.611Z,18.16
2022-09-15T14:59:20.742Z,18.21
2022-09-15T15:02:24.658Z,18.18
2022-09-15T15:05:42.258Z,18.06
2022-09-15T15:08:52.919Z,18.04
2022-09-15T15:12:02.117Z,18.06
2022-09-15T15:15:07.276Z,18.06
2022-09-15T15:18:31.874Z,17.99
2022-09-15T15:21:43.309Z,18.06
2022-09-15T15:24:49.751Z,18.03
2022-09-15T15:27:55.705Z,17.98
2022-09-15T15:31:13.565Z,18.06
2022-09-15T15:34:24.093Z,17.91
2022-09-15T15:37:33.985Z,17.86
2022-09-15T15:40:40.568Z,17.84
2022-09-15T15:44:07.576Z,17.76
2022-09-15T15:47:11.733Z,17.68
2022-09-15T15:50:22.325Z,17.62
2022-09-15T15:53:27.133Z,17.64
2022-09-15T15:56:33.595Z,17.62
2022-09-15T15:59:41.241Z,17.66
2022-09-15T16:02:46.442Z,17.57
2022-09-15T16:05:53.260Z,17.53
2022-09-15T16:09:00.612Z,17.50
2022-09-15T16:12:05.166Z,17.46
2022-09-15T16:15:20.767Z,17.43
2022-09-15T16:18:24.859Z,17.44
2022-09-15T16:21:36.821Z,17.46
2022-09-15T16:24:40.988Z,17.46
2022-09-15T16:27:45.009Z,17.51
2022-09-15T16:30:49.382Z,17.52
2022-09-15T16:33:53.591Z,17.46
2022-09-15T16:36:57.955Z,17.47
2022-09-15T16:40:02.221Z,17.45
2022-09-15T16:43:12.349Z,17.46
2022-09-15T16:46:17.082Z,17.45
2022-09-15T16:49:21.702Z,17.41
2022-09-15T16:52:25.570Z,17.40
2022-09-15T16:55:36.451Z,17.33
2022-09-15T16:58:41.461Z,17.33
2022-09-15T17:01:45.362Z,17.27
2022-09-15T17:04:49.422Z,17.24
2022-09-15T17:07:53.621Z,17.21
2022-09-15T17:11:03.410Z,17.17
2022-09-15T17:14:13.160Z,17.15
2022-09-15T17:17:26.631Z,17.10
2022-09-15T17:20:32.954Z,17.03
2022-09-15T17:23:43.262Z,17.07
2022-09-15T17:26:47.161Z,17.00
2022-09-15T17:29:51.047Z,16.94
2022-09-15T17:33:07.267Z,16.92
2022-09-15T17:36:12.757Z,16.90
2022-09-15T17:39:16.945Z,16.86
2022-09-15T17:42:20.610Z,16.87
2022-09-15T17:45:35.651Z,16.89
2022-09-15T17:48:40.066Z,16.83
2022-09-15T17:51:43.732Z,16.81
2022-09-15T17:54:47.703Z,16.80
2022-09-15T17:57:51.958Z,16.78
2022-09-15T18:00:57.010Z,16.76
2022-09-15T18:04:01.587Z,16.73
2022-09-15T18:07:08.564Z,16.82
2022-09-15T18:10:13.984Z,16.72
2022-09-15T18:13:20.914Z,16.69
2022-09-15T18:16:24.834Z,16.62
2022-09-15T18:19:29.214Z,16.54
2022-09-15T18:22:34.141Z,16.53
2022-09-15T18:25:38.533Z,16.49
2022-09-15T18:28:42.896Z,16.46
2022-09-15T18:31:49.360Z,16.47
2022-09-15T18:34:53.765Z,16.52
2022-09-15T18:38:00.020Z,16.46
2022-09-15T18:41:10.021Z,16.48
2022-09-15T18:44:13.921Z,16.45
2022-09-15T18:47:17.780Z,16.46
2022-09-15T18:50:25.207Z,16.44
2022-09-15T18:53:29.439Z,16.44
2022-09-15T18:56:33.551Z,16.46
2022-09-15T18:59:38.835Z,16.47
2022-09-15T19:02:43.452Z,16.49
2022-09-15T19:05:47.673Z,16.46
2022-09-15T19:08:52.228Z,16.42
2022-09-15T19:11:56.252Z,16.41
2022-09-15T19:15:00.247Z,16.43
2022-09-15T19:18:04.249Z,16.46
2022-09-15T19:21:10.787Z,16.40
2022-09-15T19:24:16.065Z,16.35
2022-09-15T19:27:20.294Z,16.26
2022-09-15T19:30:24.746Z,16.18
2022-09-15T19:33:29.059Z,16.07
2022-09-15T19:36:33.707Z,16.06
2022-09-15T19:39:39.057Z,16.07
2022-09-15T19:42:43.986Z,16.07
2022-09-15T19:45:47.729Z,16.07
2022-09-15T19:48:53.489Z,16.07
2022-09-15T19:51:57.601Z,16.05
2022-09-15T19:55:02.255Z,16.01
2022-09-15T19:58:06.487Z,16.02
2022-09-15T20:01:10.864Z,16.01
2022-09-15T20:04:15.702Z,16.01
2022-09-15T20:07:19.673Z,16.08
2022-09-15T20:10:23.811Z,16.05
2022-09-15T20:13:27.972Z,16.05
2022-09-15T20:16:31.974Z,16.06
2022-09-15T20:19:36.816Z,16.00
2022-09-15T20:22:40.969Z,15.95
2022-09-15T20:25:59.987Z,15.85
2022-09-15T20:29:04.872Z,15.80
2022-09-15T20:32:09.046Z,15.74
2022-09-15T20:35:13.719Z,15.74
2022-09-15T20:38:17.923Z,15.71
2022-09-15T20:41:24.192Z,15.71
2022-09-15T20:44:28.551Z,15.67
2022-09-15T20:47:33.472Z,15.68
2022-09-15T20:50:37.254Z,15.63
2022-09-15T20:53:43.986Z,15.60
2022-09-15T20:56:48.113Z,15.50
2022-09-15T20:59:52.195Z,15.47
2022-09-15T21:02:56.286Z,15.45
2022-09-15T21:06:01.875Z,15.40
2022-09-15T21:09:06.331Z,15.34
2022-09-15T21:12:10.470Z,15.23
2022-09-15T21:15:14.758Z,15.26
2022-09-15T21:18:19.891Z,15.20
2022-09-15T21:21:29.963Z,15.26
2022-09-15T21:24:33.847Z,15.32
2022-09-15T21:27:37.549Z,15.41
2022-09-15T21:30:41.387Z,15.40
2022-09-15T21:33:47.005Z,15.33
2022-09-15T21:36:51.807Z,15.27
2022-09-15T21:39:56.871Z,15.18
2022-09-15T21:43:01.838Z,15.00
2022-09-15T21:46:08.429Z,14.90
2022-09-15T21:49:12.757Z,14.65
2022-09-15T21:52:17.029Z,14.63
2022-09-15T21:55:21.179Z,14.53
2022-09-15T21:58:26.169Z,14.44
2022-09-15T22:01:32.549Z,14.46
2022-09-15T22:04:36.324Z,14.41
2022-09-15T22:07:40.208Z,14.43
2022-09-15T22:10:44.485Z,14.36
2022-09-15T22:13:48.678Z,14.33
2022-09-15T22:16:52.483Z,14.30
2022-09-15T22:19:56.994Z,14.31
2022-09-15T22:23:01.326Z,14.34
2022-09-15T22:26:11.433Z,14.31
2022-09-15T22:29:15.367Z,14.31
2022-09-15T22:32:19.183Z,14.32
2022-09-15T22:35:23.209Z,14.25
2022-09-15T22:38:29.459Z,14.25
2022-09-15T22:41:38.420Z,14.23
2022-09-15T22:44:42.424Z,14.24
2022-09-15T22:47:46.558Z,14.21
2022-09-15T22:50:50.856Z,14.16
2022-09-15T22:53:57.055Z,14.04
2022-09-15T22:57:01.226Z,13.90
2022-09-15T23:00:06.265Z,13.91
2022-09-15T23:03:11.425Z,13.95
2022-09-15T23:06:15.391Z,13.96
2022-09-15T23:09:19.824Z,13.97
2022-09-15T23:12:23.952Z,13.94
2022-09-15T23:15:28.739Z,13.93
2022-09-15T23:18:33.893Z,13.83
2022-09-15T23:21:37.925Z,13.74
2022-09-15T23:24:41.939Z,13.69
2022-09-15T23:27:46.082Z,13.70
2022-09-15T23:30:54.510Z,13.67
2022-09-15T23:33:58.428Z,13.67
2022-09-15T23:37:03.217Z,13.69
2022-09-15T23:40:07.437Z,13.72
2022-09-15T23:43:12.420Z,13.68
2022-09-15T23:46:16.691Z,13.73
2022-09-15T23:49:20.363Z,13.76
2022-09-15T23:52:24.527Z,13.73
2022-09-15T23:55:28.283Z,13.78
2022-09-15T23:58:32.510Z,13.80
